sensor_id;sensor_type;location;lat;lon;timestamp;P1;durP1;ratioP1;P2;durP2;ratioP2
52414;SDS011;38340;52.964;6.086;2022-07-10T00:00:35;6.75;;;2.30;;
52414;SDS011;38340;52.964;6.086;2022-07-10T00:03:02;7.32;;;2.15;;
52414;SDS011;38340;52.964;6.086;2022-07-10T00:05:29;7.65;;;2.25;;
52414;SDS011;38340;52.964;6.086;2022-07-10T00:07:55;7.32;;;2.20;;
52414;SDS011;38340;52.964;6.086;2022-07-10T00:10:21;8.70;;;2.63;;
52414;SDS011;38340;52.964;6.086;2022-07-10T00:12:47;7.90;;;2.70;;
52414;SDS011;38340;52.964;6.086;2022-07-10T00:15:15;7.10;;;2.00;;
52414;SDS011;38340;52.964;6.086;2022-07-10T00:17:42;7.70;;;2.30;;
52414;SDS011;38340;52.964;6.086;2022-07-10T00:20:09;8.38;;;2.33;;
52414;SDS011;38340;52.964;6.086;2022-07-10T00:22:36;6.03;;;2.40;;
52414;SDS011;38340;52.964;6.086;2022-07-10T00:25:06;8.40;;;2.33;;
52414;SDS011;38340;52.964;6.086;2022-07-10T00:27:34;6.43;;;2.63;;
52414;SDS011;38340;52.964;6.086;2022-07-10T00:29:59;7.13;;;2.20;;
52414;SDS011;38340;52.964;6.086;2022-07-10T00:32:26;8.32;;;2.08;;
52414;SDS011;38340;52.964;6.086;2022-07-10T00:34:52;10.00;;;2.53;;
52414;SDS011;38340;52.964;6.086;2022-07-10T00:37:18;7.78;;;2.38;;
52414;SDS011;38340;52.964;6.086;2022-07-10T00:39:46;8.35;;;2.30;;
52414;SDS011;38340;52.964;6.086;2022-07-10T00:42:12;11.00;;;2.38;;
52414;SDS011;38340;52.964;6.086;2022-07-10T00:44:40;10.38;;;2.65;;
52414;SDS011;38340;52.964;6.086;2022-07-10T00:47:07;9.15;;;2.60;;
52414;SDS011;38340;52.964;6.086;2022-07-10T00:49:34;9.65;;;2.60;;
52414;SDS011;38340;52.964;6.086;2022-07-10T00:52:02;10.15;;;2.70;;
52414;SDS011;38340;52.964;6.086;2022-07-10T00:54:30;8.40;;;2.35;;
52414;SDS011;38340;52.964;6.086;2022-07-10T00:56:57;6.80;;;2.45;;
52414;SDS011;38340;52.964;6.086;2022-07-10T00:59:24;10.30;;;3.00;;
52414;SDS011;38340;52.964;6.086;2022-07-10T01:01:50;10.93;;;2.50;;
52414;SDS011;38340;52.964;6.086;2022-07-10T01:04:17;13.10;;;2.85;;
52414;SDS011;38340;52.964;6.086;2022-07-10T01:06:43;8.45;;;2.40;;
52414;SDS011;38340;52.964;6.086;2022-07-10T01:09:08;6.80;;;2.80;;
52414;SDS011;38340;52.964;6.086;2022-07-10T01:11:34;6.32;;;2.58;;
52414;SDS011;38340;52.964;6.086;2022-07-10T01:14:02;5.68;;;2.35;;
52414;SDS011;38340;52.964;6.086;2022-07-10T01:16:28;11.25;;;2.63;;
52414;SDS011;38340;52.964;6.086;2022-07-10T01:18:54;8.90;;;2.80;;
52414;SDS011;38340;52.964;6.086;2022-07-10T01:23:56;7.05;;;2.50;;
52414;SDS011;38340;52.964;6.086;2022-07-10T01:26:23;8.80;;;2.53;;
52414;SDS011;38340;52.964;6.086;2022-07-10T01:28:49;9.38;;;2.22;;
52414;SDS011;38340;52.964;6.086;2022-07-10T01:31:17;8.57;;;3.03;;
52414;SDS011;38340;52.964;6.086;2022-07-10T01:33:44;6.60;;;2.30;;
52414;SDS011;38340;52.964;6.086;2022-07-10T01:36:11;6.57;;;2.40;;
52414;SDS011;38340;52.964;6.086;2022-07-10T01:38:37;7.30;;;2.72;;
52414;SDS011;38340;52.964;6.086;2022-07-10T01:41:03;9.15;;;2.50;;
52414;SDS011;38340;52.964;6.086;2022-07-10T01:43:29;10.82;;;3.08;;
52414;SDS011;38340;52.964;6.086;2022-07-10T01:45:55;8.68;;;2.75;;
52414;SDS011;38340;52.964;6.086;2022-07-10T01:48:21;8.27;;;2.17;;
52414;SDS011;38340;52.964;6.086;2022-07-10T01:50:46;9.00;;;2.70;;
52414;SDS011;38340;52.964;6.086;2022-07-10T01:53:12;6.45;;;2.20;;
52414;SDS011;38340;52.964;6.086;2022-07-10T01:55:38;6.60;;;3.00;;
52414;SDS011;38340;52.964;6.086;2022-07-10T01:58:03;9.13;;;2.40;;
52414;SDS011;38340;52.964;6.086;2022-07-10T02:00:29;12.07;;;2.88;;
52414;SDS011;38340;52.964;6.086;2022-07-10T02:02:55;8.57;;;2.40;;
52414;SDS011;38340;52.964;6.086;2022-07-10T02:05:39;5.75;;;2.28;;
52414;SDS011;38340;52.964;6.086;2022-07-10T02:08:05;7.65;;;2.75;;
52414;SDS011;38340;52.964;6.086;2022-07-10T02:10:31;5.63;;;2.17;;
52414;SDS011;38340;52.964;6.086;2022-07-10T02:12:57;8.30;;;2.33;;
52414;SDS011;38340;52.964;6.086;2022-07-10T02:15:23;11.25;;;2.53;;
52414;SDS011;38340;52.964;6.086;2022-07-10T02:17:48;7.18;;;2.13;;
52414;SDS011;38340;52.964;6.086;2022-07-10T02:20:14;13.40;;;2.70;;
52414;SDS011;38340;52.964;6.086;2022-07-10T02:22:40;5.97;;;2.22;;
52414;SDS011;38340;52.964;6.086;2022-07-10T02:25:07;9.93;;;2.53;;
52414;SDS011;38340;52.964;6.086;2022-07-10T02:27:33;6.85;;;2.33;;
52414;SDS011;38340;52.964;6.086;2022-07-10T02:29:58;11.57;;;2.55;;
52414;SDS011;38340;52.964;6.086;2022-07-10T02:32:24;6.38;;;2.33;;
52414;SDS011;38340;52.964;6.086;2022-07-10T02:34:50;8.18;;;2.95;;
52414;SDS011;38340;52.964;6.086;2022-07-10T02:37:16;10.30;;;2.70;;
52414;SDS011;38340;52.964;6.086;2022-07-10T02:39:41;11.60;;;2.08;;
52414;SDS011;38340;52.964;6.086;2022-07-10T02:42:07;5.70;;;1.90;;
52414;SDS011;38340;52.964;6.086;2022-07-10T02:44:33;16.65;;;2.67;;
52414;SDS011;38340;52.964;6.086;2022-07-10T02:46:59;10.93;;;2.70;;
52414;SDS011;38340;52.964;6.086;2022-07-10T02:49:24;7.53;;;2.83;;
52414;SDS011;38340;52.964;6.086;2022-07-10T02:51:50;6.60;;;2.38;;
52414;SDS011;38340;52.964;6.086;2022-07-10T02:54:16;9.40;;;2.47;;
52414;SDS011;38340;52.964;6.086;2022-07-10T02:56:41;9.98;;;2.20;;
52414;SDS011;38340;52.964;6.086;2022-07-10T02:59:07;4.47;;;1.88;;
52414;SDS011;38340;52.964;6.086;2022-07-10T03:01:33;7.00;;;2.08;;
52414;SDS011;38340;52.964;6.086;2022-07-10T03:03:59;7.70;;;2.08;;
52414;SDS011;38340;52.964;6.086;2022-07-10T03:06:26;10.05;;;2.35;;
52414;SDS011;38340;52.964;6.086;2022-07-10T03:08:52;9.80;;;2.30;;
52414;SDS011;38340;52.964;6.086;2022-07-10T03:11:18;5.13;;;1.60;;
52414;SDS011;38340;52.964;6.086;2022-07-10T03:13:43;8.43;;;1.90;;
52414;SDS011;38340;52.964;6.086;2022-07-10T03:16:09;6.28;;;1.98;;
52414;SDS011;38340;52.964;6.086;2022-07-10T03:18:35;6.95;;;1.90;;
52414;SDS011;38340;52.964;6.086;2022-07-10T03:21:00;5.20;;;1.85;;
52414;SDS011;38340;52.964;6.086;2022-07-10T03:23:26;4.95;;;2.20;;
52414;SDS011;38340;52.964;6.086;2022-07-10T03:25:52;4.75;;;2.17;;
52414;SDS011;38340;52.964;6.086;2022-07-10T03:28:18;7.57;;;2.00;;
52414;SDS011;38340;52.964;6.086;2022-07-10T03:30:43;4.18;;;1.90;;
52414;SDS011;38340;52.964;6.086;2022-07-10T03:33:09;10.38;;;2.30;;
52414;SDS011;38340;52.964;6.086;2022-07-10T03:35:35;12.68;;;3.05;;
52414;SDS011;38340;52.964;6.086;2022-07-10T03:38:01;8.48;;;2.30;;
52414;SDS011;38340;52.964;6.086;2022-07-10T03:40:27;8.23;;;2.10;;
52414;SDS011;38340;52.964;6.086;2022-07-10T03:42:53;8.40;;;2.45;;
52414;SDS011;38340;52.964;6.086;2022-07-10T03:45:18;9.25;;;2.40;;
52414;SDS011;38340;52.964;6.086;2022-07-10T03:47:44;7.85;;;2.17;;
52414;SDS011;38340;52.964;6.086;2022-07-10T03:50:10;9.23;;;2.20;;
52414;SDS011;38340;52.964;6.086;2022-07-10T03:52:35;10.13;;;3.13;;
52414;SDS011;38340;52.964;6.086;2022-07-10T03:55:01;12.52;;;2.75;;
52414;SDS011;38340;52.964;6.086;2022-07-10T03:57:27;14.93;;;3.22;;
52414;SDS011;38340;52.964;6.086;2022-07-10T04:00:12;11.85;;;3.08;;
52414;SDS011;38340;52.964;6.086;2022-07-10T04:02:38;9.15;;;2.40;;
52414;SDS011;38340;52.964;6.086;2022-07-10T04:05:08;7.38;;;2.63;;
52414;SDS011;38340;52.964;6.086;2022-07-10T04:07:35;7.97;;;2.53;;
52414;SDS011;38340;52.964;6.086;2022-07-10T04:10:01;9.30;;;3.33;;
52414;SDS011;38340;52.964;6.086;2022-07-10T04:12:27;10.88;;;3.60;;
52414;SDS011;38340;52.964;6.086;2022-07-10T04:14:53;8.52;;;2.70;;
52414;SDS011;38340;52.964;6.086;2022-07-10T04:17:19;10.65;;;2.83;;
52414;SDS011;38340;52.964;6.086;2022-07-10T04:19:45;8.32;;;2.70;;
52414;SDS011;38340;52.964;6.086;2022-07-10T04:22:11;9.93;;;2.67;;
52414;SDS011;38340;52.964;6.086;2022-07-10T04:24:37;8.00;;;3.30;;
52414;SDS011;38340;52.964;6.086;2022-07-10T04:27:03;11.82;;;4.45;;
52414;SDS011;38340;52.964;6.086;2022-07-10T04:29:29;8.95;;;2.80;;
52414;SDS011;38340;52.964;6.086;2022-07-10T04:31:57;13.45;;;3.67;;
52414;SDS011;38340;52.964;6.086;2022-07-10T04:34:23;12.07;;;3.95;;
52414;SDS011;38340;52.964;6.086;2022-07-10T04:36:48;9.38;;;3.50;;
52414;SDS011;38340;52.964;6.086;2022-07-10T04:39:14;10.85;;;3.80;;
52414;SDS011;38340;52.964;6.086;2022-07-10T04:41:40;10.88;;;3.83;;
52414;SDS011;38340;52.964;6.086;2022-07-10T04:44:05;14.93;;;3.92;;
52414;SDS011;38340;52.964;6.086;2022-07-10T04:46:32;12.07;;;4.65;;
52414;SDS011;38340;52.964;6.086;2022-07-10T04:48:57;12.05;;;3.97;;
52414;SDS011;38340;52.964;6.086;2022-07-10T04:51:23;13.57;;;4.70;;
52414;SDS011;38340;52.964;6.086;2022-07-10T04:53:49;10.93;;;4.55;;
52414;SDS011;38340;52.964;6.086;2022-07-10T04:56:15;11.30;;;4.20;;
52414;SDS011;38340;52.964;6.086;2022-07-10T04:58:40;11.25;;;3.90;;
52414;SDS011;38340;52.964;6.086;2022-07-10T05:01:06;10.40;;;3.85;;
52414;SDS011;38340;52.964;6.086;2022-07-10T05:03:32;11.20;;;4.15;;
52414;SDS011;38340;52.964;6.086;2022-07-10T05:05:57;11.30;;;3.83;;
52414;SDS011;38340;52.964;6.086;2022-07-10T05:08:23;13.98;;;3.65;;
52414;SDS011;38340;52.964;6.086;2022-07-10T05:10:49;11.63;;;3.75;;
52414;SDS011;38340;52.964;6.086;2022-07-10T05:13:14;9.70;;;3.88;;
52414;SDS011;38340;52.964;6.086;2022-07-10T05:15:40;14.85;;;4.03;;
52414;SDS011;38340;52.964;6.086;2022-07-10T05:18:06;11.10;;;3.83;;
52414;SDS011;38340;52.964;6.086;2022-07-10T05:20:31;10.65;;;3.75;;
52414;SDS011;38340;52.964;6.086;2022-07-10T05:22:59;9.90;;;4.22;;
52414;SDS011;38340;52.964;6.086;2022-07-10T05:25:24;7.65;;;3.42;;
52414;SDS011;38340;52.964;6.086;2022-07-10T05:27:51;13.38;;;3.92;;
52414;SDS011;38340;52.964;6.086;2022-07-10T05:30:17;8.48;;;3.55;;
52414;SDS011;38340;52.964;6.086;2022-07-10T05:32:46;12.98;;;3.65;;
52414;SDS011;38340;52.964;6.086;2022-07-10T05:35:13;10.23;;;3.78;;
52414;SDS011;38340;52.964;6.086;2022-07-10T05:37:39;11.07;;;4.63;;
52414;SDS011;38340;52.964;6.086;2022-07-10T05:40:05;7.32;;;3.58;;
52414;SDS011;38340;52.964;6.086;2022-07-10T05:42:31;12.68;;;4.00;;
52414;SDS011;38340;52.964;6.086;2022-07-10T05:44:57;10.10;;;4.00;;
52414;SDS011;38340;52.964;6.086;2022-07-10T05:47:23;9.73;;;4.07;;
52414;SDS011;38340;52.964;6.086;2022-07-10T05:49:48;8.70;;;3.90;;
52414;SDS011;38340;52.964;6.086;2022-07-10T05:52:14;11.07;;;3.80;;
52414;SDS011;38340;52.964;6.086;2022-07-10T05:54:40;8.80;;;3.95;;
52414;SDS011;38340;52.964;6.086;2022-07-10T05:57:05;8.70;;;4.13;;
52414;SDS011;38340;52.964;6.086;2022-07-10T05:59:34;9.65;;;3.65;;
52414;SDS011;38340;52.964;6.086;2022-07-10T06:02:03;13.35;;;4.07;;
52414;SDS011;38340;52.964;6.086;2022-07-10T06:04:29;14.70;;;4.22;;
52414;SDS011;38340;52.964;6.086;2022-07-10T06:06:55;10.05;;;3.72;;
52414;SDS011;38340;52.964;6.086;2022-07-10T06:09:21;12.20;;;3.95;;
52414;SDS011;38340;52.964;6.086;2022-07-10T06:11:47;8.52;;;3.63;;
52414;SDS011;38340;52.964;6.086;2022-07-10T06:14:14;10.55;;;3.90;;
52414;SDS011;38340;52.964;6.086;2022-07-10T06:16:40;9.68;;;3.53;;
52414;SDS011;38340;52.964;6.086;2022-07-10T06:19:06;7.20;;;3.28;;
52414;SDS011;38340;52.964;6.086;2022-07-10T06:21:31;12.25;;;4.10;;
52414;SDS011;38340;52.964;6.086;2022-07-10T06:23:57;7.38;;;3.60;;
52414;SDS011;38340;52.964;6.086;2022-07-10T06:26:24;9.88;;;3.75;;
52414;SDS011;38340;52.964;6.086;2022-07-10T06:28:50;8.82;;;3.88;;
52414;SDS011;38340;52.964;6.086;2022-07-10T06:31:16;8.13;;;3.20;;
52414;SDS011;38340;52.964;6.086;2022-07-10T06:33:41;12.32;;;4.20;;
52414;SDS011;38340;52.964;6.086;2022-07-10T06:36:07;8.32;;;3.88;;
52414;SDS011;38340;52.964;6.086;2022-07-10T06:38:33;12.40;;;3.70;;
52414;SDS011;38340;52.964;6.086;2022-07-10T06:40:59;8.00;;;2.85;;
52414;SDS011;38340;52.964;6.086;2022-07-10T06:43:24;6.35;;;3.05;;
52414;SDS011;38340;52.964;6.086;2022-07-10T06:45:50;9.18;;;3.15;;
52414;SDS011;38340;52.964;6.086;2022-07-10T06:48:16;6.30;;;3.00;;
52414;SDS011;38340;52.964;6.086;2022-07-10T06:50:42;8.68;;;3.47;;
52414;SDS011;38340;52.964;6.086;2022-07-10T06:53:08;8.98;;;3.55;;
52414;SDS011;38340;52.964;6.086;2022-07-10T06:55:33;7.43;;;2.95;;
52414;SDS011;38340;52.964;6.086;2022-07-10T06:58:00;9.60;;;2.67;;
52414;SDS011;38340;52.964;6.086;2022-07-10T07:00:26;8.95;;;3.20;;
52414;SDS011;38340;52.964;6.086;2022-07-10T07:02:52;7.75;;;2.90;;
52414;SDS011;38340;52.964;6.086;2022-07-10T07:05:18;5.60;;;2.60;;
52414;SDS011;38340;52.964;6.086;2022-07-10T07:07:43;10.02;;;3.22;;
52414;SDS011;38340;52.964;6.086;2022-07-10T07:10:10;6.85;;;2.88;;
52414;SDS011;38340;52.964;6.086;2022-07-10T07:12:36;4.65;;;2.42;;
52414;SDS011;38340;52.964;6.086;2022-07-10T07:15:02;6.65;;;2.70;;
52414;SDS011;38340;52.964;6.086;2022-07-10T07:17:28;9.15;;;2.63;;
52414;SDS011;38340;52.964;6.086;2022-07-10T07:20:11;6.82;;;2.80;;
52414;SDS011;38340;52.964;6.086;2022-07-10T07:22:56;10.30;;;3.20;;
52414;SDS011;38340;52.964;6.086;2022-07-10T07:25:37;7.13;;;2.83;;
52414;SDS011;38340;52.964;6.086;2022-07-10T07:28:07;8.73;;;2.80;;
52414;SDS011;38340;52.964;6.086;2022-07-10T07:30:34;6.53;;;2.88;;
52414;SDS011;38340;52.964;6.086;2022-07-10T07:32:59;8.20;;;3.55;;
52414;SDS011;38340;52.964;6.086;2022-07-10T07:35:25;6.30;;;2.78;;
52414;SDS011;38340;52.964;6.086;2022-07-10T07:37:51;6.70;;;2.65;;
52414;SDS011;38340;52.964;6.086;2022-07-10T07:40:26;3.97;;;2.38;;
52414;SDS011;38340;52.964;6.086;2022-07-10T07:42:54;8.50;;;2.75;;
52414;SDS011;38340;52.964;6.086;2022-07-10T07:45:20;9.25;;;3.03;;
52414;SDS011;38340;52.964;6.086;2022-07-10T07:47:58;7.78;;;2.67;;
52414;SDS011;38340;52.964;6.086;2022-07-10T07:50:34;7.60;;;2.92;;
52414;SDS011;38340;52.964;6.086;2022-07-10T07:53:01;6.00;;;2.30;;
52414;SDS011;38340;52.964;6.086;2022-07-10T07:55:29;15.88;;;4.18;;
52414;SDS011;38340;52.964;6.086;2022-07-10T07:57:57;9.55;;;2.78;;
52414;SDS011;38340;52.964;6.086;2022-07-10T08:00:23;8.07;;;3.38;;
52414;SDS011;38340;52.964;6.086;2022-07-10T08:02:51;4.90;;;2.72;;
52414;SDS011;38340;52.964;6.086;2022-07-10T08:05:18;8.35;;;2.78;;
52414;SDS011;38340;52.964;6.086;2022-07-10T08:10:11;4.72;;;3.00;;
52414;SDS011;38340;52.964;6.086;2022-07-10T08:12:39;8.82;;;2.85;;
52414;SDS011;38340;52.964;6.086;2022-07-10T08:15:12;6.40;;;2.80;;
52414;SDS011;38340;52.964;6.086;2022-07-10T08:17:39;6.85;;;2.83;;
52414;SDS011;38340;52.964;6.086;2022-07-10T08:20:06;6.47;;;3.20;;
52414;SDS011;38340;52.964;6.086;2022-07-10T08:22:33;6.47;;;3.00;;
52414;SDS011;38340;52.964;6.086;2022-07-10T08:24:59;7.93;;;3.05;;
52414;SDS011;38340;52.964;6.086;2022-07-10T08:27:26;14.13;;;3.78;;
52414;SDS011;38340;52.964;6.086;2022-07-10T08:29:51;8.10;;;3.60;;
52414;SDS011;38340;52.964;6.086;2022-07-10T08:32:17;6.20;;;3.38;;
52414;SDS011;38340;52.964;6.086;2022-07-10T08:34:43;9.68;;;3.08;;
52414;SDS011;38340;52.964;6.086;2022-07-10T08:37:09;10.13;;;3.22;;
52414;SDS011;38340;52.964;6.086;2022-07-10T08:39:35;8.57;;;3.80;;
52414;SDS011;38340;52.964;6.086;2022-07-10T08:42:00;8.73;;;3.60;;
52414;SDS011;38340;52.964;6.086;2022-07-10T08:44:29;10.68;;;3.40;;
52414;SDS011;38340;52.964;6.086;2022-07-10T08:46:55;6.80;;;2.78;;
52414;SDS011;38340;52.964;6.086;2022-07-10T08:49:28;8.48;;;3.17;;
52414;SDS011;38340;52.964;6.086;2022-07-10T08:52:02;7.45;;;2.80;;
52414;SDS011;38340;52.964;6.086;2022-07-10T08:54:33;6.15;;;2.80;;
52414;SDS011;38340;52.964;6.086;2022-07-10T08:57:01;6.85;;;2.55;;
52414;SDS011;38340;52.964;6.086;2022-07-10T08:59:28;5.90;;;2.42;;
52414;SDS011;38340;52.964;6.086;2022-07-10T09:01:54;7.82;;;2.35;;
52414;SDS011;38340;52.964;6.086;2022-07-10T09:04:21;4.68;;;2.85;;
52414;SDS011;38340;52.964;6.086;2022-07-10T09:06:48;6.68;;;2.67;;
52414;SDS011;38340;52.964;6.086;2022-07-10T09:09:13;8.82;;;2.53;;
52414;SDS011;38340;52.964;6.086;2022-07-10T09:11:39;9.73;;;2.88;;
52414;SDS011;38340;52.964;6.086;2022-07-10T09:14:07;8.00;;;2.70;;
52414;SDS011;38340;52.964;6.086;2022-07-10T09:16:39;8.50;;;2.65;;
52414;SDS011;38340;52.964;6.086;2022-07-10T09:19:25;4.20;;;2.65;;
52414;SDS011;38340;52.964;6.086;2022-07-10T09:24:43;6.65;;;2.90;;
52414;SDS011;38340;52.964;6.086;2022-07-10T09:27:11;9.13;;;2.75;;
52414;SDS011;38340;52.964;6.086;2022-07-10T09:29:49;6.85;;;2.70;;
52414;SDS011;38340;52.964;6.086;2022-07-10T09:32:21;6.60;;;2.10;;
52414;SDS011;38340;52.964;6.086;2022-07-10T09:34:48;5.65;;;2.40;;
52414;SDS011;38340;52.964;6.086;2022-07-10T09:37:36;5.03;;;2.17;;
52414;SDS011;38340;52.964;6.086;2022-07-10T09:40:04;9.75;;;2.90;;
52414;SDS011;38340;52.964;6.086;2022-07-10T09:42:38;6.68;;;2.10;;
52414;SDS011;38340;52.964;6.086;2022-07-10T09:47:41;7.82;;;2.72;;
52414;SDS011;38340;52.964;6.086;2022-07-10T09:50:20;6.63;;;2.50;;
52414;SDS011;38340;52.964;6.086;2022-07-10T09:52:49;7.05;;;3.03;;
52414;SDS011;38340;52.964;6.086;2022-07-10T09:55:17;5.80;;;2.40;;
52414;SDS011;38340;52.964;6.086;2022-07-10T09:57:45;6.15;;;2.47;;
52414;SDS011;38340;52.964;6.086;2022-07-10T10:00:20;7.50;;;2.55;;
52414;SDS011;38340;52.964;6.086;2022-07-10T10:02:57;4.30;;;2.70;;
52414;SDS011;38340;52.964;6.086;2022-07-10T10:05:52;7.00;;;2.60;;
52414;SDS011;38340;52.964;6.086;2022-07-10T10:08:20;5.90;;;2.97;;
52414;SDS011;38340;52.964;6.086;2022-07-10T10:10:50;5.13;;;2.53;;
52414;SDS011;38340;52.964;6.086;2022-07-10T10:15:47;7.10;;;2.90;;
52414;SDS011;38340;52.964;6.086;2022-07-10T10:18:15;6.57;;;2.47;;
52414;SDS011;38340;52.964;6.086;2022-07-10T10:20:42;6.00;;;2.33;;
52414;SDS011;38340;52.964;6.086;2022-07-10T10:23:12;6.32;;;2.58;;
52414;SDS011;38340;52.964;6.086;2022-07-10T10:25:42;7.47;;;2.97;;
52414;SDS011;38340;52.964;6.086;2022-07-10T10:28:09;6.47;;;2.97;;
52414;SDS011;38340;52.964;6.086;2022-07-10T10:30:37;8.38;;;2.85;;
52414;SDS011;38340;52.964;6.086;2022-07-10T10:33:32;5.88;;;2.40;;
52414;SDS011;38340;52.964;6.086;2022-07-10T10:35:55;5.55;;;2.70;;
52414;SDS011;38340;52.964;6.086;2022-07-10T10:38:21;8.27;;;2.75;;
52414;SDS011;38340;52.964;6.086;2022-07-10T10:40:47;6.30;;;2.30;;
52414;SDS011;38340;52.964;6.086;2022-07-10T10:45:43;5.97;;;2.20;;
52414;SDS011;38340;52.964;6.086;2022-07-10T10:48:12;3.10;;;1.80;;
52414;SDS011;38340;52.964;6.086;2022-07-10T10:50:45;5.00;;;2.55;;
52414;SDS011;38340;52.964;6.086;2022-07-10T10:58:36;7.53;;;2.60;;
52414;SDS011;38340;52.964;6.086;2022-07-10T11:01:24;7.97;;;2.55;;
52414;SDS011;38340;52.964;6.086;2022-07-10T11:06:42;5.78;;;3.40;;
52414;SDS011;38340;52.964;6.086;2022-07-10T11:12:09;8.40;;;3.20;;
52414;SDS011;38340;52.964;6.086;2022-07-10T11:14:46;11.68;;;3.65;;
52414;SDS011;38340;52.964;6.086;2022-07-10T11:17:14;7.05;;;3.03;;
52414;SDS011;38340;52.964;6.086;2022-07-10T11:19:40;5.70;;;3.08;;
52414;SDS011;38340;52.964;6.086;2022-07-10T11:33:29;8.95;;;2.80;;
52414;SDS011;38340;52.964;6.086;2022-07-10T11:36:09;7.40;;;2.47;;
52414;SDS011;38340;52.964;6.086;2022-07-10T11:38:38;5.32;;;2.55;;
52414;SDS011;38340;52.964;6.086;2022-07-10T11:41:18;4.55;;;2.53;;
52414;SDS011;38340;52.964;6.086;2022-07-10T11:43:47;6.13;;;2.33;;
52414;SDS011;38340;52.964;6.086;2022-07-10T11:46:17;10.70;;;2.65;;
52414;SDS011;38340;52.964;6.086;2022-07-10T11:48:46;4.53;;;2.38;;
52414;SDS011;38340;52.964;6.086;2022-07-10T11:51:31;7.07;;;2.63;;
52414;SDS011;38340;52.964;6.086;2022-07-10T11:56:37;6.88;;;2.00;;
52414;SDS011;38340;52.964;6.086;2022-07-10T11:59:07;5.22;;;2.15;;
52414;SDS011;38340;52.964;6.086;2022-07-10T12:01:40;4.55;;;1.80;;
52414;SDS011;38340;52.964;6.086;2022-07-10T12:04:14;4.65;;;2.03;;
52414;SDS011;38340;52.964;6.086;2022-07-10T12:06:47;4.63;;;1.65;;
52414;SDS011;38340;52.964;6.086;2022-07-10T12:09:14;3.63;;;1.95;;
52414;SDS011;38340;52.964;6.086;2022-07-10T12:12:00;4.05;;;1.92;;
52414;SDS011;38340;52.964;6.086;2022-07-10T12:14:27;5.45;;;2.47;;
52414;SDS011;38340;52.964;6.086;2022-07-10T12:16:54;4.10;;;1.92;;
52414;SDS011;38340;52.964;6.086;2022-07-10T12:19:27;4.05;;;1.83;;
52414;SDS011;38340;52.964;6.086;2022-07-10T12:21:59;6.72;;;2.05;;
52414;SDS011;38340;52.964;6.086;2022-07-10T12:24:26;7.50;;;2.80;;
52414;SDS011;38340;52.964;6.086;2022-07-10T12:26:52;8.30;;;2.90;;
52414;SDS011;38340;52.964;6.086;2022-07-10T12:29:29;6.03;;;2.78;;
52414;SDS011;38340;52.964;6.086;2022-07-10T12:31:57;5.95;;;2.25;;
52414;SDS011;38340;52.964;6.086;2022-07-10T12:34:33;4.78;;;1.77;;
52414;SDS011;38340;52.964;6.086;2022-07-10T12:39:37;4.97;;;2.00;;
52414;SDS011;38340;52.964;6.086;2022-07-10T12:42:13;4.07;;;2.30;;
52414;SDS011;38340;52.964;6.086;2022-07-10T12:44:53;3.75;;;2.10;;
52414;SDS011;38340;52.964;6.086;2022-07-10T12:47:19;5.30;;;2.13;;
52414;SDS011;38340;52.964;6.086;2022-07-10T12:52:38;7.13;;;1.85;;
52414;SDS011;38340;52.964;6.086;2022-07-10T12:57:44;2.95;;;1.95;;
52414;SDS011;38340;52.964;6.086;2022-07-10T13:00:23;3.35;;;1.50;;
52414;SDS011;38340;52.964;6.086;2022-07-10T13:03:03;3.65;;;1.70;;
52414;SDS011;38340;52.964;6.086;2022-07-10T13:05:36;3.75;;;1.80;;
52414;SDS011;38340;52.964;6.086;2022-07-10T13:08:21;5.22;;;1.80;;
52414;SDS011;38340;52.964;6.086;2022-07-10T13:10:54;5.47;;;2.00;;
52414;SDS011;38340;52.964;6.086;2022-07-10T13:13:21;5.32;;;2.13;;
52414;SDS011;38340;52.964;6.086;2022-07-10T13:15:47;3.33;;;1.73;;
52414;SDS011;38340;52.964;6.086;2022-07-10T13:18:22;3.47;;;1.65;;
52414;SDS011;38340;52.964;6.086;2022-07-10T13:20:50;5.28;;;2.45;;
52414;SDS011;38340;52.964;6.086;2022-07-10T13:23:16;7.75;;;2.58;;
52414;SDS011;38340;52.964;6.086;2022-07-10T13:25:50;3.03;;;1.60;;
52414;SDS011;38340;52.964;6.086;2022-07-10T13:28:17;6.30;;;2.20;;
52414;SDS011;38340;52.964;6.086;2022-07-10T13:30:43;6.30;;;1.73;;
52414;SDS011;38340;52.964;6.086;2022-07-10T13:33:09;4.47;;;1.73;;
52414;SDS011;38340;52.964;6.086;2022-07-10T13:35:35;5.30;;;1.77;;
52414;SDS011;38340;52.964;6.086;2022-07-10T13:38:02;5.82;;;1.90;;
52414;SDS011;38340;52.964;6.086;2022-07-10T13:40:32;5.93;;;2.00;;
52414;SDS011;38340;52.964;6.086;2022-07-10T13:42:59;3.70;;;1.80;;
52414;SDS011;38340;52.964;6.086;2022-07-10T13:45:25;4.00;;;1.70;;
52414;SDS011;38340;52.964;6.086;2022-07-10T13:47:55;5.30;;;1.80;;
52414;SDS011;38340;52.964;6.086;2022-07-10T13:50:21;5.10;;;2.08;;
52414;SDS011;38340;52.964;6.086;2022-07-10T13:52:48;4.03;;;1.60;;
52414;SDS011;38340;52.964;6.086;2022-07-10T13:55:14;4.63;;;1.70;;
52414;SDS011;38340;52.964;6.086;2022-07-10T13:57:40;5.28;;;1.63;;
52414;SDS011;38340;52.964;6.086;2022-07-10T14:00:06;4.25;;;1.98;;
52414;SDS011;38340;52.964;6.086;2022-07-10T14:02:32;3.80;;;1.80;;
52414;SDS011;38340;52.964;6.086;2022-07-10T14:04:58;4.35;;;1.33;;
52414;SDS011;38340;52.964;6.086;2022-07-10T14:07:24;3.55;;;1.60;;
52414;SDS011;38340;52.964;6.086;2022-07-10T14:09:49;5.72;;;1.83;;
52414;SDS011;38340;52.964;6.086;2022-07-10T14:12:15;3.28;;;1.60;;
52414;SDS011;38340;52.964;6.086;2022-07-10T14:14:41;3.25;;;1.60;;
52414;SDS011;38340;52.964;6.086;2022-07-10T14:17:07;2.85;;;1.70;;
52414;SDS011;38340;52.964;6.086;2022-07-10T14:19:33;2.42;;;1.50;;
52414;SDS011;38340;52.964;6.086;2022-07-10T14:21:58;5.68;;;1.90;;
52414;SDS011;38340;52.964;6.086;2022-07-10T14:24:24;3.22;;;1.60;;
52414;SDS011;38340;52.964;6.086;2022-07-10T14:26:50;3.65;;;1.40;;
52414;SDS011;38340;52.964;6.086;2022-07-10T14:29:18;6.18;;;1.90;;
52414;SDS011;38340;52.964;6.086;2022-07-10T14:31:44;5.60;;;1.40;;
52414;SDS011;38340;52.964;6.086;2022-07-10T14:34:13;2.80;;;1.73;;
52414;SDS011;38340;52.964;6.086;2022-07-10T14:36:38;4.30;;;1.73;;
52414;SDS011;38340;52.964;6.086;2022-07-10T14:39:04;6.45;;;1.90;;
52414;SDS011;38340;52.964;6.086;2022-07-10T14:41:30;3.80;;;1.75;;
52414;SDS011;38340;52.964;6.086;2022-07-10T14:43:55;5.75;;;1.50;;
52414;SDS011;38340;52.964;6.086;2022-07-10T14:46:21;5.68;;;2.00;;
52414;SDS011;38340;52.964;6.086;2022-07-10T14:48:47;3.95;;;1.65;;
52414;SDS011;38340;52.964;6.086;2022-07-10T14:51:12;4.70;;;1.67;;
52414;SDS011;38340;52.964;6.086;2022-07-10T14:53:39;3.75;;;2.00;;
52414;SDS011;38340;52.964;6.086;2022-07-10T14:56:06;2.90;;;1.52;;
52414;SDS011;38340;52.964;6.086;2022-07-10T14:58:32;4.65;;;1.75;;
52414;SDS011;38340;52.964;6.086;2022-07-10T15:00:59;5.47;;;2.00;;
52414;SDS011;38340;52.964;6.086;2022-07-10T15:03:27;6.22;;;2.28;;
52414;SDS011;38340;52.964;6.086;2022-07-10T15:05:54;3.10;;;2.00;;
52414;SDS011;38340;52.964;6.086;2022-07-10T15:08:24;4.20;;;1.92;;
52414;SDS011;38340;52.964;6.086;2022-07-10T15:10:50;3.63;;;1.77;;
52414;SDS011;38340;52.964;6.086;2022-07-10T15:13:16;4.47;;;2.13;;
52414;SDS011;38340;52.964;6.086;2022-07-10T15:15:42;6.55;;;2.20;;
52414;SDS011;38340;52.964;6.086;2022-07-10T15:18:08;4.55;;;1.85;;
52414;SDS011;38340;52.964;6.086;2022-07-10T15:20:34;3.70;;;2.40;;
52414;SDS011;38340;52.964;6.086;2022-07-10T15:23:00;8.45;;;2.30;;
52414;SDS011;38340;52.964;6.086;2022-07-10T15:25:26;4.75;;;2.22;;
52414;SDS011;38340;52.964;6.086;2022-07-10T15:27:52;5.47;;;2.25;;
52414;SDS011;38340;52.964;6.086;2022-07-10T15:30:18;6.53;;;2.10;;
52414;SDS011;38340;52.964;6.086;2022-07-10T15:32:44;3.45;;;2.08;;
52414;SDS011;38340;52.964;6.086;2022-07-10T15:35:10;5.80;;;2.25;;
52414;SDS011;38340;52.964;6.086;2022-07-10T15:37:37;3.83;;;2.28;;